createdAt,value
2018-04-28T00:01:41.879Z,60.00
2018-04-28T00:07:02.355Z,62.20
2018-04-28T00:09:37.453Z,62.40
2018-04-28T00:12:09.387Z,61.70
2018-04-28T00:14:41.375Z,62.80
2018-04-28T00:17:13.043Z,63.20
2018-04-28T00:19:43.840Z,63.10
2018-04-28T00:22:18.706Z,63.10
2018-04-28T00:24:48.426Z,63.40
2018-04-28T00:27:19.120Z,63.30
2018-04-28T00:29:48.867Z,64.40
2018-04-28T00:32:18.651Z,65.30
2018-04-28T00:34:56.280Z,65.70
2018-04-28T00:37:42.029Z,65.90
2018-04-28T00:40:18.036Z,65.90
2018-04-28T00:42:48.211Z,66.50
2018-04-28T00:45:18.393Z,66.60
2018-04-28T00:47:54.609Z,67.40
2018-04-28T00:50:45.028Z,67.30
2018-04-28T00:53:17.611Z,68.00
2018-04-28T00:55:48.847Z,68.50
2018-04-28T00:58:38.497Z,68.80
2018-04-28T01:01:13.065Z,68.90
2018-04-28T01:03:47.236Z,68.70
2018-04-28T01:06:22.639Z,68.70
2018-04-28T01:08:54.800Z,68.20
2018-04-28T01:11:26.441Z,68.60
2018-04-28T01:14:16.209Z,68.50
2018-04-28T01:17:05.140Z,68.30
2018-04-28T01:19:41.112Z,68.00
2018-04-28T01:22:15.856Z,67.20
2018-04-28T01:24:51.616Z,67.60
2018-04-28T01:27:27.261Z,67.50
2018-04-28T01:33:02.516Z,67.80
2018-04-28T01:35:46.068Z,68.10
2018-04-28T01:38:18.659Z,68.60
2018-04-28T01:40:48.751Z,69.30
2018-04-28T01:43:21.244Z,69.50
2018-04-28T01:46:01.944Z,69.70
2018-04-28T01:48:35.580Z,69.50
2018-04-28T01:51:08.712Z,69.50
2018-04-28T01:53:47.725Z,69.70
2018-04-28T01:56:18.981Z,69.70
2018-04-28T01:58:51.277Z,70.50
2018-04-28T02:01:22.476Z,71.00
2018-04-28T02:03:52.734Z,70.90
2018-04-28T02:06:24.309Z,71.10
2018-04-28T02:08:54.994Z,71.70
2018-04-28T02:11:28.021Z,71.70
2018-04-28T02:13:58.181Z,72.20
2018-04-28T02:16:28.422Z,72.60
2018-04-28T02:18:59.124Z,73.00
2018-04-28T02:21:28.687Z,73.80
2018-04-28T02:24:04.811Z,73.70
2018-04-28T02:26:37.940Z,74.20
2018-04-28T02:29:18.964Z,74.60
2018-04-28T02:32:07.102Z,74.60
2018-04-28T02:34:55.079Z,74.80
2018-04-28T02:37:46.729Z,75.60
2018-04-28T02:40:19.532Z,75.70
2018-04-28T02:42:51.583Z,76.60
2018-04-28T02:45:22.421Z,76.70
2018-04-28T02:47:53.642Z,77.10
2018-04-28T02:50:23.220Z,77.10
2018-04-28T02:52:52.806Z,77.30
2018-04-28T02:55:28.377Z,77.90
2018-04-28T02:58:04.221Z,77.90
2018-04-28T03:00:34.227Z,78.20
2018-04-28T03:03:07.388Z,78.10
2018-04-28T03:05:40.014Z,78.00
2018-04-28T03:08:19.443Z,78.00
2018-04-28T03:10:50.704Z,77.90
2018-04-28T03:13:20.817Z,78.00
2018-04-28T03:15:50.805Z,77.80
2018-04-28T03:18:20.813Z,77.50
2018-04-28T03:20:52.379Z,77.50
2018-04-28T03:23:23.175Z,77.30
2018-04-28T03:25:54.345Z,77.50
2018-04-28T03:28:24.630Z,77.60
2018-04-28T03:30:55.714Z,77.80
2018-04-28T03:33:29.985Z,78.30
2018-04-28T03:36:03.545Z,78.30
2018-04-28T03:38:34.824Z,78.30
2018-04-28T03:41:05.629Z,78.50
2018-04-28T03:43:36.294Z,78.70
2018-04-28T03:46:06.088Z,78.80
2018-04-28T03:48:36.742Z,78.90
2018-04-28T03:51:10.056Z,78.80
2018-04-28T03:53:43.544Z,78.50
2018-04-28T03:56:12.939Z,78.40
2018-04-28T03:59:53.197Z,78.20
2018-04-28T04:03:31.678Z,77.50
2018-04-28T04:06:03.787Z,76.40
2018-04-28T04:08:49.450Z,75.30
2018-04-28T04:11:35.520Z,75.30
2018-04-28T04:14:05.590Z,74.70
2018-04-28T04:16:36.996Z,74.60
2018-04-28T04:19:09.224Z,74.10
2018-04-28T04:21:41.576Z,73.90
2018-04-28T04:24:12.072Z,73.30
2018-04-28T04:26:42.180Z,73.10
2018-04-28T04:29:18.119Z,72.80
2018-04-28T04:31:48.305Z,72.60
2018-04-28T04:34:20.114Z,72.40
2018-04-28T04:36:53.959Z,71.60
2018-04-28T04:39:24.939Z,71.40
2018-04-28T04:42:01.371Z,70.90
2018-04-28T04:44:31.284Z,70.80
2018-04-28T04:47:01.687Z,70.70
2018-04-28T04:49:31.676Z,70.60
2018-04-28T04:52:06.001Z,70.40
2018-04-28T04:54:38.610Z,70.40
2018-04-28T04:57:09.130Z,70.40
2018-04-28T04:59:39.883Z,70.40
2018-04-28T05:02:11.147Z,70.70
2018-04-28T05:04:45.488Z,70.60
2018-04-28T05:07:16.207Z,70.80
2018-04-28T05:09:47.134Z,71.20
2018-04-28T05:12:20.350Z,70.60
2018-04-28T05:14:49.635Z,70.50
2018-04-28T05:17:19.996Z,70.70
2018-04-28T05:20:00.020Z,70.20
2018-04-28T05:22:30.341Z,70.30
2018-04-28T05:25:06.284Z,70.40
2018-04-28T05:27:37.755Z,70.50
2018-04-28T05:30:16.681Z,70.40
2018-04-28T05:32:52.632Z,71.60
2018-04-28T05:35:22.091Z,70.70
2018-04-28T05:37:54.547Z,70.70
2018-04-28T05:40:27.499Z,70.50
2018-04-28T05:43:04.380Z,70.50
2018-04-28T05:45:38.787Z,70.00
2018-04-28T05:48:15.314Z,69.70
2018-04-28T05:50:46.466Z,69.50
2018-04-28T05:53:23.035Z,69.70
2018-04-28T05:55:55.129Z,69.70
2018-04-28T05:58:26.940Z,69.60
2018-04-28T06:00:57.250Z,69.20
2018-04-28T06:03:32.892Z,68.90
2018-04-28T06:06:08.082Z,69.30
2018-04-28T06:08:38.518Z,69.20
2018-04-28T06:11:09.906Z,69.70
2018-04-28T06:13:40.694Z,69.60
2018-04-28T06:16:13.352Z,68.80
2018-04-28T06:18:45.249Z,69.20
2018-04-28T06:21:15.221Z,69.50
2018-04-28T06:23:45.105Z,69.40
2018-04-28T06:26:15.002Z,69.00
2018-04-28T06:28:47.334Z,68.30
2018-04-28T06:31:17.663Z,67.10
2018-04-28T06:33:48.350Z,67.20
2018-04-28T06:36:19.523Z,66.80
2018-04-28T06:38:49.821Z,67.10
2018-04-28T06:41:20.473Z,67.30
2018-04-28T06:43:51.339Z,67.20
2018-04-28T06:46:22.247Z,67.20
2018-04-28T06:48:53.524Z,67.30
2018-04-28T06:51:29.818Z,67.30
2018-04-28T06:54:01.310Z,67.20
2018-04-28T06:56:32.624Z,67.10
2018-04-28T06:59:02.797Z,67.80
2018-04-28T07:01:34.672Z,67.20
2018-04-28T07:04:05.911Z,66.30
2018-04-28T07:06:37.781Z,66.30
2018-04-28T07:09:12.123Z,67.00
2018-04-28T07:11:43.623Z,67.50
2018-04-28T07:14:15.776Z,67.10
2018-04-28T07:16:47.837Z,66.30
2018-04-28T07:19:18.017Z,65.80
2018-04-28T07:21:51.165Z,65.80
2018-04-28T07:24:22.044Z,65.20
2018-04-28T07:26:52.566Z,64.50
2018-04-28T07:29:32.014Z,64.00
2018-04-28T07:32:05.895Z,64.30
2018-04-28T07:34:36.792Z,64.30
2018-04-28T07:37:06.577Z,64.30
2018-04-28T07:39:37.448Z,64.30
2018-04-28T07:42:08.584Z,64.80
2018-04-28T07:44:39.126Z,64.60
2018-04-28T07:47:11.186Z,63.60
2018-04-28T07:49:43.664Z,63.60
2018-04-28T07:52:16.468Z,63.50
2018-04-28T07:54:51.658Z,63.00
2018-04-28T07:57:23.328Z,63.00
2018-04-28T07:59:54.509Z,61.70
2018-04-28T08:02:24.816Z,61.70
2018-04-28T08:04:55.899Z,63.10
2018-04-28T08:07:26.004Z,63.20
2018-04-28T08:09:55.641Z,63.20
2018-04-28T08:12:26.373Z,63.40
2018-04-28T08:14:55.714Z,62.40
2018-04-28T08:17:26.714Z,60.60
2018-04-28T08:19:58.134Z,60.60
2018-04-28T08:22:27.520Z,60.30
2018-04-28T08:24:57.081Z,60.90
2018-04-28T08:27:30.145Z,60.80
2018-04-28T08:30:01.105Z,60.50
2018-04-28T08:32:44.607Z,60.40
2018-04-28T08:35:26.091Z,60.10
2018-04-28T08:38:00.687Z,60.00
2018-04-28T08:40:31.725Z,58.20
2018-04-28T08:43:04.217Z,58.20
2018-04-28T08:45:37.096Z,54.30
2018-04-28T08:48:20.255Z,52.60
2018-04-28T08:50:59.911Z,52.50
2018-04-28T08:53:39.699Z,48.50
2018-04-28T08:56:11.893Z,48.40
2018-04-28T08:58:43.669Z,46.40
2018-04-28T09:01:13.256Z,46.40
2018-04-28T09:03:44.285Z,43.50
2018-04-28T09:06:15.062Z,43.50
2018-04-28T09:09:47.035Z,42.90
2018-04-28T09:12:18.012Z,43.50
2018-04-28T09:14:48.210Z,44.50
2018-04-28T09:17:17.921Z,43.40
2018-04-28T09:19:48.559Z,43.80
2018-04-28T09:22:17.880Z,43.60
2018-04-28T09:24:47.986Z,44.80
2018-04-28T09:27:18.237Z,45.70
2018-04-28T09:29:51.077Z,44.60
2018-04-28T09:32:20.367Z,44.50
2018-04-28T09:34:59.782Z,43.70
2018-04-28T09:37:42.287Z,43.10
2018-04-28T09:40:12.050Z,43.10
2018-04-28T09:42:42.434Z,42.50
2018-04-28T09:45:12.460Z,41.70
2018-04-28T09:47:43.020Z,41.20
2018-04-28T09:50:14.069Z,41.90
2018-04-28T09:52:45.758Z,42.50
2018-04-28T09:55:18.229Z,41.00
2018-04-28T09:57:57.628Z,41.00
2018-04-28T10:00:34.206Z,40.90
2018-04-28T10:03:05.777Z,42.70
2018-04-28T10:05:36.005Z,43.90
2018-04-28T10:08:05.995Z,45.20
2018-04-28T10:10:37.789Z,43.40
2018-04-28T10:13:07.830Z,36.80
2018-04-28T10:15:37.238Z,36.80
2018-04-28T10:18:07.382Z,34.80
2018-04-28T10:20:38.121Z,35.20
2018-04-28T10:23:08.940Z,35.60
2018-04-28T10:25:39.167Z,36.70
2018-04-28T10:28:09.806Z,38.50
2018-04-28T10:30:42.751Z,40.00
2018-04-28T10:33:18.036Z,43.00
2018-04-28T10:35:56.566Z,43.00
2018-04-28T10:38:34.376Z,42.30
2018-04-28T10:41:05.214Z,42.30
2018-04-28T10:43:37.122Z,41.70
2018-04-28T10:46:08.572Z,40.90
2018-04-28T10:48:39.497Z,37.90
2018-04-28T10:51:09.010Z,37.10
2018-04-28T10:53:42.628Z,37.10
2018-04-28T10:56:17.059Z,37.10
2018-04-28T10:58:49.799Z,38.70
2018-04-28T11:01:20.304Z,38.70
2018-04-28T11:03:57.402Z,38.70
2018-04-28T11:06:28.771Z,38.90
2018-04-28T11:09:04.463Z,38.90
2018-04-28T11:11:34.170Z,38.90
2018-04-28T11:14:06.225Z,39.40
2018-04-28T11:16:37.629Z,39.00
2018-04-28T11:19:09.622Z,37.10
2018-04-28T11:21:40.886Z,37.10
2018-04-28T11:24:18.390Z,34.60
2018-04-28T11:27:01.233Z,32.40
2018-04-28T11:29:49.239Z,34.00
2018-04-28T11:32:20.020Z,35.00
2018-04-28T11:34:52.084Z,36.30
2018-04-28T11:37:22.360Z,37.00
2018-04-28T11:39:53.234Z,35.80
2018-04-28T11:42:23.629Z,35.80
2018-04-28T11:44:53.929Z,37.20
2018-04-28T11:47:27.466Z,38.50
2018-04-28T11:49:58.525Z,39.60
2018-04-28T11:52:28.431Z,40.10
2018-04-28T11:55:03.225Z,40.30
2018-04-28T11:57:36.994Z,38.90
2018-04-28T12:00:09.798Z,36.40
2018-04-28T12:02:47.922Z,30.10
2018-04-28T12:05:28.469Z,30.00
2018-04-28T12:08:01.877Z,28.90
2018-04-28T12:10:32.262Z,30.50
2018-04-28T12:13:03.856Z,32.00
2018-04-28T12:15:34.208Z,33.40
2018-04-28T12:18:06.011Z,33.60
2018-04-28T12:20:36.583Z,33.60
2018-04-28T12:23:17.159Z,33.80
2018-04-28T12:25:52.009Z,35.10
2018-04-28T12:28:37.469Z,35.70
2018-04-28T12:31:18.765Z,36.40
2018-04-28T12:33:56.184Z,37.10
2018-04-28T12:36:40.867Z,36.10
2018-04-28T12:39:11.803Z,35.20
2018-04-28T12:41:46.218Z,35.00
2018-04-28T12:44:18.397Z,35.00
2018-04-28T12:46:50.619Z,36.10
2018-04-28T12:49:23.621Z,36.70
2018-04-28T12:51:56.473Z,36.70
2018-04-28T12:54:27.106Z,36.30
2018-04-28T12:56:59.205Z,36.90
2018-04-28T12:59:33.089Z,36.40
2018-04-28T13:02:10.192Z,36.50
2018-04-28T13:04:46.152Z,37.00
2018-04-28T13:07:25.555Z,37.20
2018-04-28T13:10:05.103Z,37.80
2018-04-28T13:12:52.064Z,37.90
2018-04-28T13:15:30.891Z,38.20
2018-04-28T13:18:13.144Z,37.70
2018-04-28T13:21:04.490Z,37.30
2018-04-28T13:23:38.937Z,35.50
2018-04-28T13:26:21.090Z,35.70
2018-04-28T13:29:02.723Z,35.70
2018-04-28T13:34:25.326Z,36.10
2018-04-28T13:36:58.036Z,36.00
2018-04-28T13:39:31.427Z,36.30
2018-04-28T13:42:02.586Z,36.30
2018-04-28T13:44:35.165Z,35.20
2018-04-28T13:47:06.520Z,35.20
2018-04-28T13:49:52.171Z,35.60
2018-04-28T13:52:30.873Z,36.70
2018-04-28T13:55:02.531Z,35.50
2018-04-28T13:57:36.210Z,36.20
2018-04-28T14:00:20.192Z,35.90
2018-04-28T14:02:50.448Z,36.20
2018-04-28T14:05:23.651Z,36.50
2018-04-28T14:07:54.963Z,37.30
2018-04-28T14:10:37.759Z,37.60
2018-04-28T14:13:10.626Z,37.90
2018-04-28T14:15:42.408Z,38.10
2018-04-28T14:18:13.996Z,38.30
2018-04-28T14:20:49.794Z,38.20
2018-04-28T14:23:23.650Z,38.20
2018-04-28T14:25:56.766Z,38.00
2018-04-28T14:28:27.081Z,37.70
2018-04-28T14:31:30.394Z,37.90
2018-04-28T14:34:14.171Z,37.80
2018-04-28T14:36:50.952Z,37.80
2018-04-28T14:39:21.529Z,38.70
2018-04-28T14:41:59.435Z,38.30
2018-04-28T14:44:31.481Z,38.20
2018-04-28T14:47:11.254Z,38.60
2018-04-28T14:49:45.401Z,38.80
2018-04-28T14:52:20.258Z,38.60
2018-04-28T14:54:56.390Z,38.10
2018-04-28T14:57:28.661Z,37.70
2018-04-28T15:00:01.136Z,37.30
2018-04-28T15:02:36.229Z,37.30
2018-04-28T15:05:14.456Z,37.00
2018-04-28T15:08:01.800Z,36.40
2018-04-28T15:10:36.488Z,37.10
2018-04-28T15:13:07.960Z,37.20
2018-04-28T15:15:41.020Z,37.70
2018-04-28T15:18:12.738Z,37.10
2018-04-28T15:20:48.233Z,37.80
2018-04-28T15:23:23.874Z,37.30
2018-04-28T15:25:58.194Z,37.00
2018-04-28T15:28:43.245Z,37.00
2018-04-28T15:31:31.536Z,37.60
2018-04-28T15:34:02.950Z,38.00
2018-04-28T15:36:37.604Z,38.30
2018-04-28T15:39:10.133Z,38.20
2018-04-28T15:41:44.249Z,38.50
2018-04-28T15:44:19.816Z,38.20
2018-04-28T15:46:50.572Z,38.90
2018-04-28T15:49:22.699Z,39.20
2018-04-28T15:51:53.785Z,39.50
2018-04-28T15:54:25.155Z,39.10
2018-04-28T15:56:59.062Z,39.30
2018-04-28T15:59:47.090Z,38.90
2018-04-28T16:02:30.205Z,38.90
2018-04-28T16:05:24.121Z,38.90
2018-04-28T16:07:54.944Z,38.90
2018-04-28T16:10:46.580Z,39.10
2018-04-28T16:13:30.285Z,39.00
2018-04-28T16:16:00.648Z,38.90
2018-04-28T16:18:42.409Z,39.10
2018-04-28T16:21:22.371Z,39.40
2018-04-28T16:23:55.917Z,39.10
2018-04-28T16:26:31.432Z,39.10
2018-04-28T16:29:03.592Z,39.30
2018-04-28T16:31:36.521Z,39.30
2018-04-28T16:34:07.241Z,39.20
2018-04-28T16:36:37.505Z,39.70
2018-04-28T16:39:12.289Z,39.90
2018-04-28T16:41:42.805Z,39.50
2018-04-28T16:44:13.558Z,39.50
2018-04-28T16:46:51.211Z,39.60
2018-04-28T16:49:29.886Z,40.00
2018-04-28T16:52:01.847Z,39.90
2018-04-28T16:54:36.778Z,39.80
2018-04-28T16:57:10.114Z,39.90
2018-04-28T16:59:39.524Z,40.20
2018-04-28T17:02:14.475Z,39.50
2018-04-28T17:04:56.900Z,39.90
2018-04-28T17:07:28.041Z,40.90
2018-04-28T17:09:58.359Z,41.00
2018-04-28T17:12:31.089Z,42.70
2018-04-28T17:15:02.099Z,42.80
2018-04-28T17:17:43.831Z,40.90
2018-04-28T17:20:16.562Z,41.90
2018-04-28T17:22:47.215Z,41.90
2018-04-28T17:25:18.992Z,42.30
2018-04-28T17:28:03.288Z,44.60
2018-04-28T17:30:35.163Z,44.60
2018-04-28T17:33:05.621Z,45.30
2018-04-28T17:35:41.172Z,43.90
2018-04-28T17:38:15.272Z,43.30
2018-04-28T17:40:45.460Z,43.30
2018-04-28T17:43:24.359Z,42.90
2018-04-28T17:45:57.073Z,42.20
2018-04-28T17:48:33.749Z,43.10
2018-04-28T17:51:20.489Z,43.80
2018-04-28T17:53:57.827Z,43.70
2018-04-28T17:56:32.160Z,44.40
2018-04-28T17:59:04.217Z,44.40
2018-04-28T18:01:37.012Z,46.60
2018-04-28T18:04:26.703Z,46.00
2018-04-28T18:07:17.961Z,45.80
2018-04-28T18:10:05.243Z,45.90
2018-04-28T18:13:07.678Z,47.00
2018-04-28T18:15:48.496Z,46.60
2018-04-28T18:18:36.454Z,47.90
2018-04-28T18:21:10.686Z,48.60
2018-04-28T18:23:41.748Z,50.30
2018-04-28T18:26:41.198Z,51.20
2018-04-28T18:29:12.161Z,52.50
2018-04-28T18:31:57.984Z,53.10
2018-04-28T18:34:37.200Z,54.00
2018-04-28T18:37:14.419Z,53.90
2018-04-28T18:39:49.921Z,53.90
2018-04-28T18:42:23.582Z,53.00
2018-04-28T18:44:57.464Z,52.00
2018-04-28T18:47:36.121Z,52.60
2018-04-28T18:50:14.805Z,52.60
2018-04-28T18:52:59.966Z,52.70
2018-04-28T18:55:37.513Z,53.20
2018-04-28T18:58:09.833Z,53.90
2018-04-28T19:00:54.069Z,56.10
2018-04-28T19:03:40.118Z,56.00
2018-04-28T19:06:17.929Z,54.90
2018-04-28T19:09:01.341Z,54.40
2018-04-28T19:11:42.983Z,54.70
2018-04-28T19:14:15.916Z,52.30
2018-04-28T19:16:46.678Z,51.90
2018-04-28T19:19:27.814Z,51.80
2018-04-28T19:22:00.712Z,51.70
2018-04-28T19:24:32.592Z,49.30
2018-04-28T19:29:51.779Z,50.80
2018-04-28T19:32:36.726Z,52.60
2018-04-28T19:35:26.727Z,50.80
2018-04-28T19:38:02.297Z,50.80
2018-04-28T19:40:37.236Z,50.40
2018-04-28T19:43:09.213Z,50.20
2018-04-28T19:45:42.824Z,46.70
2018-04-28T19:48:14.984Z,46.60
2018-04-28T19:50:45.755Z,47.90
2018-04-28T19:53:18.152Z,47.70
2018-04-28T19:55:53.944Z,48.60
2018-04-28T19:58:33.962Z,47.60
2018-04-28T20:01:09.058Z,47.90
2018-04-28T20:03:49.661Z,48.30
2018-04-28T20:06:29.713Z,48.30
2018-04-28T20:09:05.079Z,49.80
2018-04-28T20:11:39.237Z,50.20
2018-04-28T20:14:14.093Z,51.10
2018-04-28T20:16:45.076Z,51.10
2018-04-28T20:19:20.325Z,51.00
2018-04-28T20:21:50.999Z,51.60
2018-04-28T20:25:23.561Z,50.90
2018-04-28T20:27:58.363Z,50.00
2018-04-28T20:31:00.157Z,50.10
2018-04-28T20:34:01.169Z,50.10
2018-04-28T20:36:41.044Z,50.30
2018-04-28T20:39:24.541Z,50.00
2018-04-28T20:42:30.238Z,50.10
2018-04-28T20:45:17.051Z,51.70
2018-04-28T20:48:08.639Z,51.70
2018-04-28T20:50:39.944Z,52.00
2018-04-28T20:53:37.042Z,52.10
2018-04-28T20:56:16.426Z,53.10
2018-04-28T20:58:47.561Z,53.10
2018-04-28T21:01:24.228Z,51.70
2018-04-28T21:03:57.773Z,53.00
2018-04-28T21:06:39.060Z,52.70
2018-04-28T21:09:22.224Z,54.00
2018-04-28T21:12:07.347Z,52.80
2018-04-28T21:14:58.115Z,53.50
2018-04-28T21:17:29.581Z,54.30
2018-04-28T21:20:04.411Z,56.30
2018-04-28T21:22:36.138Z,56.20
2018-04-28T21:25:14.592Z,55.80
2018-04-28T21:27:55.534Z,56.10
2018-04-28T21:30:32.887Z,58.20
2018-04-28T21:33:15.444Z,55.00
2018-04-28T21:35:47.833Z,56.20
2018-04-28T21:38:18.572Z,57.70
2018-04-28T21:40:51.618Z,57.60
2018-04-28T21:43:31.110Z,56.40
2018-04-28T21:46:04.284Z,55.10
2018-04-28T21:48:53.036Z,58.40
2018-04-28T21:51:27.344Z,57.90
2018-04-28T21:54:00.489Z,59.00
2018-04-28T21:56:31.398Z,59.10
2018-04-28T21:59:18.643Z,59.50
2018-04-28T22:02:03.414Z,58.70
2018-04-28T22:04:44.915Z,58.90
2018-04-28T22:07:18.949Z,60.40
2018-04-28T22:09:57.307Z,61.50
2018-04-28T22:12:31.681Z,61.40
2018-04-28T22:15:10.435Z,62.70
2018-04-28T22:17:40.211Z,62.70
2018-04-28T22:20:15.966Z,62.20
2018-04-28T22:22:46.124Z,62.00
2018-04-28T22:25:27.144Z,62.10
2018-04-28T22:28:02.546Z,62.10
2018-04-28T22:30:43.621Z,63.30
2018-04-28T22:33:22.922Z,63.00
2018-04-28T22:35:58.951Z,63.80
2018-04-28T22:38:47.704Z,64.20
2018-04-28T22:41:29.471Z,65.10
2018-04-28T22:44:07.510Z,65.10
2018-04-28T22:46:42.927Z,64.90
2018-04-28T22:49:20.086Z,66.30
2018-04-28T22:51:51.971Z,66.50
2018-04-28T22:54:24.395Z,65.90
2018-04-28T22:57:12.952Z,65.80
2018-04-28T22:59:47.382Z,66.50
2018-04-28T23:02:36.414Z,67.20
2018-04-28T23:05:21.190Z,68.00
2018-04-28T23:07:58.113Z,67.80
2018-04-28T23:10:29.695Z,68.60
2018-04-28T23:13:10.549Z,67.90
2018-04-28T23:15:41.923Z,69.10
2018-04-28T23:18:14.352Z,69.50
2018-04-28T23:20:59.804Z,68.90
2018-04-28T23:23:43.532Z,69.60
2018-04-28T23:26:29.054Z,70.10
2018-04-28T23:29:05.151Z,70.70
2018-04-28T23:31:37.433Z,70.30
2018-04-28T23:34:22.656Z,70.80
2018-04-28T23:37:11.327Z,71.40
2018-04-28T23:39:48.411Z,72.00
2018-04-28T23:42:39.103Z,72.60
2018-04-28T23:45:18.480Z,73.50
2018-04-28T23:47:57.548Z,71.60
2018-04-28T23:50:39.936Z,72.10
2018-04-28T23:53:13.923Z,72.60
2018-04-28T23:55:55.221Z,72.70
2018-04-28T23:58:36.491Z,73.00
